Time;durP1;ratioP1;P1;durP2;ratioP2;P2;SDS_P1;SDS_P2;PMS_P1;PMS_P2;Temp;Humidity;BMP_temperature;BMP_pressure;BME280_temperature;BME280_humidity;BME280_pressure;Samples;Min_cycle;Max_cycle;Signal;HPM_P1;HPM_P2
2024/01/05 15:01:20;;;;;;;2.53;1.23;;;7.40;99.90;8.40;99503.00;;;;6318409;22;20231;-66
2024/01/05 15:03:57;;;;;;;3.30;1.60;;;7.40;99.90;8.90;99497.00;;;;6107909;22;4132670;-67
2024/01/05 15:06:31;;;;;;;1.20;1.10;;;7.50;99.90;8.60;99496.00;;;;6219008;23;20151;-67
2024/01/05 15:09:08;;;;;;;1.70;1.00;;;7.50;99.90;8.70;99498.00;;;;6219106;23;20154;-67
2024/01/05 15:11:44;;;;;;;3.60;1.23;;;7.50;99.90;8.70;99507.00;;;;6245868;23;20163;-67
2024/01/05 15:14:21;;;;;;;1.97;1.83;;;7.50;99.90;8.50;99506.00;;;;6245905;23;20188;-67
2024/01/05 15:16:55;;;;;;;0.33;0.33;;;7.50;99.90;9.20;99507.00;;;;6245816;23;20149;-67
2024/01/05 15:19:29;;;;;;;0.20;0.20;;;7.60;99.90;9.40;99508.00;;;;6246598;23;20159;-67
2024/01/05 15:22:03;;;;;;;0.20;0.20;;;7.70;99.90;9.30;99518.00;;;;6221103;23;20221;-67
2024/01/05 15:24:44;;;;;;;0.50;0.50;;;7.60;99.90;9.40;99509.00;;;;6220117;23;20613;-67
2024/01/05 15:27:21;;;;;;;6.77;1.33;;;7.80;99.90;9.30;99511.00;;;;6246311;23;20151;-67
2024/01/05 15:29:55;;;;;;;0.43;0.43;;;7.80;99.90;9.10;99506.00;;;;6247814;23;20219;-67
2024/01/05 15:32:29;;;;;;;0.30;0.30;;;7.70;99.90;9.00;99506.00;;;;6247697;23;20154;-68
2024/01/05 15:35:04;;;;;;;1.17;1.10;;;7.60;99.90;9.30;99508.00;;;;6220313;23;20170;-67
2024/01/05 15:37:36;;;;;;;1.70;1.40;;;7.80;99.90;8.50;99509.00;;;;6220527;23;20614;-67
2024/01/05 15:40:11;;;;;;;1.33;1.23;;;7.60;99.90;8.80;99519.00;;;;6220890;23;20142;-66
2024/01/05 15:42:45;;;;;;;0.63;0.63;;;7.60;99.90;9.00;99484.00;;;;6246927;23;20277;-66
2024/01/05 15:45:20;;;;;;;3.03;1.67;;;7.70;99.90;9.60;99532.00;;;;6247516;23;20158;-66
2024/01/05 15:47:46;;;;;;;4.90;1.13;;;7.80;99.90;9.10;99544.00;;;;6247261;23;20138;-78
2024/01/05 15:50:20;;;;;;;7.40;0.70;;;7.80;99.90;9.30;99530.00;;;;6220927;23;20151;-70
2024/01/05 15:52:54;;;;;;;2.20;2.00;;;7.80;99.90;8.60;99535.00;;;;6247321;23;20143;-70
2024/01/05 15:55:25;;;;;;;0.20;0.20;;;7.70;99.90;9.30;99556.00;;;;6221324;23;20155;-68
2024/01/05 15:58:02;;;;;;;0.97;0.83;;;7.80;99.90;9.80;99547.00;;;;6246475;23;20606;-71
2024/01/05 16:00:28;;;;;;;0.60;0.60;;;7.90;99.90;9.30;99545.00;;;;6219958;23;20245;-68
2024/01/05 16:03:02;;;;;;;0.97;0.70;;;7.80;99.90;9.30;99553.00;;;;6247038;23;20722;-68
2024/01/05 16:05:34;;;;;;;1.37;1.13;;;7.80;99.90;9.10;99547.00;;;;6245887;23;20159;-69
2024/01/05 16:08:03;;;;;;;0.50;0.50;;;7.80;99.90;9.70;99557.00;;;;6219975;23;20214;-69
2024/01/05 16:10:29;;;;;;;1.27;1.23;;;7.90;99.90;9.10;99526.00;;;;6220631;23;20458;-68
2024/01/05 16:12:55;;;;;;;1.87;1.73;;;7.90;99.90;9.10;99566.00;;;;6219554;23;20159;-69
2024/01/05 16:15:26;;;;;;;0.37;0.37;;;7.90;99.90;10.10;99542.00;;;;6220510;23;20145;-69
2024/01/05 16:17:59;;;;;;;1.73;1.30;;;8.10;99.90;9.30;99588.00;;;;6245831;23;20214;-69
2024/01/05 16:20:25;;;;;;;0.50;0.50;;;8.00;99.90;9.90;99579.00;;;;6247117;23;20145;-69
2024/01/05 16:22:54;;;;;;;1.03;0.73;;;8.10;99.90;9.70;99582.00;;;;6220203;23;20506;-70
2024/01/05 16:25:46;;;;;;;5.60;1.70;;;8.10;99.90;9.40;99594.00;;;;6191240;23;20157;-70
2024/01/05 16:28:15;;;;;;;0.30;0.30;;;8.00;99.90;9.70;99592.00;;;;6219674;23;20201;-71
2024/01/05 16:30:42;;;;;;;0.27;0.27;;;8.10;99.90;9.60;99599.00;;;;6219408;23;20166;-71
2024/01/05 16:33:11;;;;;;;0.80;0.80;;;8.10;99.90;9.70;99597.00;;;;6246617;23;20148;-70
2024/01/05 16:35:37;;;;;;;0.43;0.43;;;8.10;99.90;9.70;99608.00;;;;6219116;23;20647;-71
2024/01/05 16:38:03;;;;;;;0.30;0.30;;;8.10;99.90;9.90;99606.00;;;;6218546;23;20188;-71
2024/01/05 16:40:31;;;;;;;0.40;0.40;;;8.10;99.90;11.40;99611.00;;;;6220175;23;20240;-71
2024/01/05 16:43:01;;;;;;;0.40;0.40;;;8.60;99.90;11.70;99597.00;;;;6247007;23;20176;-72
2024/01/05 16:45:38;;;;;;;0.97;0.97;;;8.80;99.90;11.30;99599.00;;;;6246939;23;20168;-71
2024/01/05 16:48:05;;;;;;;0.43;0.43;;;8.90;99.90;11.60;99588.00;;;;6246700;23;20153;-72
2024/01/05 16:50:34;;;;;;;0.50;0.50;;;8.90;99.90;11.50;99591.00;;;;6244668;23;20598;-71
2024/01/05 16:53:03;;;;;;;1.10;1.00;;;9.20;99.90;10.80;99586.00;;;;6246231;23;20585;-71
2024/01/05 16:55:36;;;;;;;0.90;0.90;;;8.80;99.90;10.40;99588.00;;;;6246610;23;20145;-71
2024/01/05 16:58:10;;;;;;;0.70;0.70;;;8.60;99.90;10.20;99608.00;;;;6220079;23;20144;-71
2024/01/05 17:00:47;;;;;;;0.60;0.60;;;8.50;99.90;10.80;99594.00;;;;6243804;23;20168;-71
2024/01/05 17:05:59;;;;;;;0.70;0.70;;;8.90;99.90;10.50;99606.00;;;;6205276;23;20177;-71
2024/01/05 17:08:35;;;;;;;1.37;1.27;;;8.70;99.90;10.40;99609.00;;;;6216702;23;20149;-70
2024/01/05 17:11:01;;;;;;;0.90;0.90;;;8.60;99.90;10.30;99628.00;;;;6240071;23;20169;-70
2024/01/05 17:13:27;;;;;;;0.60;0.60;;;8.60;99.90;9.90;99634.00;;;;6214699;23;20592;-70
2024/01/05 17:15:58;;;;;;;0.60;0.60;;;8.30;99.90;9.60;99640.00;;;;6213790;23;20374;-70
2024/01/05 17:18:32;;;;;;;1.43;1.33;;;8.20;99.90;10.10;99635.00;;;;6214660;23;20591;-70
2024/01/05 17:21:00;;;;;;;0.90;0.90;;;8.40;99.90;10.30;99646.00;;;;6216342;23;20154;-70
2024/01/05 17:23:27;;;;;;;0.40;0.40;;;8.40;99.90;9.80;99646.00;;;;6214780;23;20248;-70
2024/01/05 17:25:53;;;;;;;2.40;1.77;;;8.20;99.90;10.30;99651.00;;;;6214591;23;20526;-70
2024/01/05 17:28:19;;;;;;;1.80;1.70;;;8.30;99.90;10.10;99648.00;;;;6216486;23;20173;-70
2024/01/05 17:30:46;;;;;;;0.60;0.50;;;8.30;99.90;10.20;99644.00;;;;6214416;23;20153;-70
2024/01/05 17:33:12;;;;;;;1.70;1.60;;;8.40;99.90;10.60;99650.00;;;;6214764;23;20502;-70
2024/01/05 17:35:38;;;;;;;1.07;1.07;;;8.40;99.90;10.20;99621.00;;;;6214342;23;20152;-70
2024/01/05 17:38:04;;;;;;;1.53;1.40;;;8.40;99.90;10.60;99661.00;;;;6215558;23;20495;-70
2024/01/05 17:40:30;;;;;;;0.60;0.60;;;8.40;99.90;10.20;99655.00;;;;6215971;23;20157;-71
2024/01/05 17:43:08;;;;;;;0.80;0.80;;;8.40;99.90;10.60;99663.00;;;;6214061;23;20176;-70
2024/01/05 17:45:34;;;;;;;6.53;6.13;;;8.50;99.90;11.20;99630.00;;;;6239582;23;20585;-70
2024/01/05 17:48:02;;;;;;;1.77;1.73;;;8.80;99.90;10.40;99670.00;;;;6215397;23;20192;-70
2024/01/05 17:50:28;;;;;;;1.90;1.80;;;8.60;99.90;10.90;99679.00;;;;6189539;23;20160;-70
2024/01/05 17:52:57;;;;;;;0.70;0.70;;;8.70;99.90;10.40;99675.00;;;;6212694;23;20169;-70
2024/01/05 17:55:23;;;;;;;0.67;0.67;;;8.70;99.90;10.70;99649.00;;;;6215716;23;20145;-70
2024/01/05 17:57:50;;;;;;;0.93;0.93;;;8.60;99.90;11.10;99677.00;;;;6212636;23;20150;-70
2024/01/05 18:00:21;;;;;;;0.90;0.90;;;8.70;99.90;10.50;99677.00;;;;6215667;23;20578;-70
2024/01/05 18:02:46;;;;;;;0.50;0.50;;;8.70;99.90;10.90;99694.00;;;;6213748;23;20192;-70
2024/01/05 18:05:18;;;;;;;0.60;0.60;;;8.60;99.90;10.80;99661.00;;;;6214520;23;20158;-70
2024/01/05 18:08:19;;;;;;;0.90;0.90;;;8.70;99.90;11.30;99696.00;;;;6215606;23;20162;-70
2024/01/05 18:10:45;;;;;;;2.00;1.90;;;8.80;99.90;11.10;99695.00;;;;6238905;23;20486;-70
2024/01/05 18:13:49;;;;;;;0.50;0.50;;;8.90;99.90;10.70;99703.00;;;;6214027;23;20247;-71
2024/01/05 18:17:25;;;;;;;0.70;0.70;;;8.70;99.90;10.60;99713.00;;;;6194940;23;20184;-70
2024/01/05 18:20:32;;;;;;;1.07;1.07;;;8.50;99.90;10.60;99686.00;;;;6210860;23;20162;-70
2024/01/05 18:23:24;;;;;;;2.73;2.63;;;8.60;99.90;10.30;99688.00;;;;6213330;23;20174;-70
2024/01/05 18:26:25;;;;;;;0.60;0.60;;;8.50;99.90;10.50;99723.00;;;;6123389;23;20164;-70
2024/01/05 18:29:08;;;;;;;0.50;0.50;;;8.60;99.90;10.70;99724.00;;;;6093235;23;20172;-70
2024/01/05 18:31:37;;;;;;;0.77;0.77;;;8.60;99.90;11.50;99724.00;;;;6202913;23;20176;-70
2024/01/05 18:34:24;;;;;;;2.33;2.20;;;9.00;99.90;11.60;99725.00;;;;6214523;23;20147;-70
2024/01/05 18:37:40;;;;;;;2.17;2.07;;;9.00;99.90;11.30;99718.00;;;;6213770;23;20397;-70
2024/01/05 18:41:00;;;;;;;1.67;1.57;;;9.00;99.90;10.70;99707.00;;;;6215744;23;20164;-70
2024/01/05 18:44:13;;;;;;;2.83;2.57;;;8.80;99.90;11.10;99736.00;;;;6214209;23;20625;-70
2024/01/05 18:47:09;;;;;;;0.50;0.50;;;8.90;99.90;12.00;99735.00;;;;6215520;23;20457;-70
2024/01/05 18:50:06;;;;;;;0.50;0.50;;;9.30;99.90;12.50;99735.00;;;;6215734;23;20579;-70
2024/01/05 18:53:20;;;;;;;0.63;0.63;;;9.60;99.90;11.80;99728.00;;;;6215154;23;20233;-69
2024/01/05 18:56:20;;;;;;;0.53;0.53;;;9.70;99.90;12.70;99748.00;;;;6217709;23;20150;-70
2024/01/05 18:59:15;;;;;;;0.70;0.70;;;9.80;99.90;12.50;99744.00;;;;6211195;23;20168;-70
2024/01/05 19:02:28;;;;;;;0.90;0.90;;;9.80;99.90;12.70;99752.00;;;;6216190;23;20204;-70
2024/01/05 19:05:30;;;;;;;0.80;0.80;;;9.90;99.90;12.60;99753.00;;;;6215977;23;20224;-70
2024/01/05 19:07:59;;;;;;;0.70;0.70;;;10.10;99.90;12.90;99760.00;;;;6214156;23;20149;-70
2024/01/05 19:11:22;;;;;;;3.47;2.23;;;10.00;99.90;12.60;99740.00;;;;6215957;23;20172;-70
2024/01/05 19:14:30;;;;;;;0.80;0.80;;;10.10;99.90;12.90;99763.00;;;;6215576;23;20142;-70
2024/01/05 19:17:37;;;;;;;0.80;0.80;;;10.10;99.90;13.10;99782.00;;;;6216911;23;20160;-70
2024/01/05 19:20:46;;;;;;;0.80;0.80;;;10.20;99.90;13.00;99788.00;;;;6215488;23;20160;-70
2024/01/05 19:24:13;;;;;;;0.90;0.90;;;10.30;99.90;13.20;99786.00;;;;6189135;23;20745;-70
2024/01/05 19:27:26;;;;;;;1.38;1.38;;;10.30;99.90;13.20;99790.00;;;;6212945;23;20389;-70
2024/01/05 19:30:35;;;;;;;1.00;1.00;;;10.20;99.90;12.70;99790.00;;;;6215673;23;20153;-70
2024/01/05 19:33:53;;;;;;;1.40;1.30;;;10.10;99.90;12.80;99791.00;;;;6216105;23;20186;-70
2024/01/05 19:37:04;;;;;;;1.10;1.00;;;10.20;99.90;12.60;99791.00;;;;6214768;23;20154;-70
2024/01/05 19:40:26;;;;;;;1.10;1.10;;;10.20;99.90;12.80;99801.00;;;;6214432;23;20401;-70
2024/01/05 19:43:38;;;;;;;1.07;1.07;;;10.20;99.90;12.50;99801.00;;;;6239672;23;20499;-71
2024/01/05 19:46:56;;;;;;;1.00;1.00;;;10.00;99.90;12.30;99813.00;;;;6215411;23;20566;-70
2024/01/05 19:49:50;;;;;;;0.80;0.80;;;9.80;99.90;11.90;99808.00;;;;6216845;23;20157;-70
2024/01/05 19:53:00;;;;;;;0.90;0.90;;;9.80;99.90;12.10;99820.00;;;;6200676;23;20166;-70
2024/01/05 19:56:06;;;;;;;0.90;0.90;;;9.70;99.90;12.50;99836.00;;;;6189389;23;20176;-70
2024/01/05 19:59:13;;;;;;;0.90;0.90;;;9.80;99.90;12.70;99838.00;;;;6209722;23;20248;-70
2024/01/05 20:02:42;;;;;;;1.07;1.07;;;9.90;99.90;13.20;99846.00;;;;6188989;23;20162;-70
2024/01/05 20:05:30;;;;;;;1.27;1.27;;;10.00;99.90;12.90;99850.00;;;;6193493;23;20544;-70
2024/01/05 20:08:40;;;;;;;1.00;1.00;;;10.10;99.90;12.80;99858.00;;;;6214641;23;20145;-70
2024/01/05 20:11:46;;;;;;;1.10;1.10;;;10.00;99.90;12.40;99861.00;;;;6215296;23;20170;-70
2024/01/05 20:15:06;;;;;;;5.20;2.37;;;9.90;99.90;11.90;99866.00;;;;6211054;23;20166;-70
2024/01/05 20:18:14;;;;;;;0.90;0.90;;;9.70;99.90;11.90;99871.00;;;;6216883;23;20608;-71
2024/01/05 20:21:08;;;;;;;0.90;0.90;;;9.60;99.90;12.30;99885.00;;;;6237060;23;20607;-71
2024/01/05 20:24:09;;;;;;;1.30;1.20;;;9.80;99.90;12.10;99880.00;;;;6213711;23;20178;-71
2024/01/05 20:26:40;;;;;;;1.15;1.15;;;9.60;99.90;12.60;99885.00;;;;6216455;23;20402;-71
2024/01/05 20:29:14;;;;;;;1.10;1.10;;;9.80;99.90;12.90;99897.00;;;;6215499;23;20143;-71
2024/01/05 20:31:54;;;;;;;1.10;1.10;;;9.90;99.90;12.30;99898.00;;;;6240444;23;20181;-70
2024/01/05 20:34:28;;;;;;;1.00;1.00;;;9.80;99.90;11.90;99902.00;;;;6216334;23;20165;-70
2024/01/05 20:37:00;;;;;;;1.00;1.00;;;9.60;99.90;12.40;99896.00;;;;6216880;23;20145;-69
2024/01/05 20:39:32;;;;;;;1.40;1.37;;;9.70;99.90;12.40;99908.00;;;;6215606;23;20158;-70
2024/01/05 20:42:24;;;;;;;1.10;1.10;;;9.70;99.90;12.60;99912.00;;;;6240225;23;20272;-70
2024/01/05 20:44:58;;;;;;;1.50;1.50;;;9.80;99.90;12.80;99913.00;;;;6215701;23;20189;-70
2024/01/05 20:47:30;;;;;;;1.20;1.20;;;9.90;99.90;12.70;99920.00;;;;6215444;23;20199;-70
2024/01/05 20:50:08;;;;;;;1.20;1.20;;;9.90;99.90;12.70;99920.00;;;;6216437;23;20146;-70
2024/01/05 20:52:42;;;;;;;1.40;1.40;;;9.90;99.90;12.90;99925.00;;;;6215022;23;20169;-70
2024/01/05 20:55:20;;;;;;;1.30;1.30;;;10.00;99.90;13.00;99928.00;;;;6214769;23;20161;-70
2024/01/05 20:58:00;;;;;;;1.50;1.50;;;10.10;99.90;12.20;99904.00;;;;6240131;23;20492;-70
